Time;durP1;ratioP1;P1;durP2;ratioP2;P2;SDS_P1;SDS_P2;PMS_P1;PMS_P2;Temp;Humidity;BMP_temperature;BMP_pressure;BME280_temperature;BME280_humidity;BME280_pressure;Samples;Min_cycle;Max_cycle;Signal;HPM_P1;HPM_P2
2023/06/28 00:01:01;;;;;;;5.63;3.00;;;;;;;27.36;45.10;99576.72;4956280;29;20023;-75
2023/06/28 00:03:27;;;;;;;6.47;2.80;;;;;;;27.37;45.22;99575.75;4956104;29;20031;-76
2023/06/28 00:05:53;;;;;;;6.00;2.20;;;;;;;27.37;45.42;99577.56;4956255;29;20159;-76
2023/06/28 00:08:18;;;;;;;5.72;2.75;;;;;;;27.38;45.09;99579.25;4956176;29;20533;-76
2023/06/28 00:10:44;;;;;;;5.20;2.80;;;;;;;27.35;45.49;99575.00;4955936;29;20506;-75
2023/06/28 00:13:09;;;;;;;4.55;2.35;;;;;;;27.36;45.50;99570.50;4955785;29;20474;-75
2023/06/28 00:15:35;;;;;;;6.78;2.95;;;;;;;27.34;45.20;99574.16;4955892;29;20028;-76
2023/06/28 00:18:03;;;;;;;5.43;2.90;;;;;;;27.35;45.32;99575.00;4938500;29;20027;-75
2023/06/28 00:20:29;;;;;;;5.97;2.58;;;;;;;27.34;45.13;99568.81;4955773;29;20040;-76
2023/06/28 00:22:55;;;;;;;5.15;2.97;;;;;;;27.34;45.41;99566.13;4955709;29;20471;-76
2023/06/28 00:25:20;;;;;;;6.30;3.42;;;;;;;27.32;45.23;99554.69;4955847;29;20030;-74
2023/06/28 00:27:46;;;;;;;5.03;2.65;;;;;;;27.32;45.54;99565.41;4955308;29;20687;-75
2023/06/28 00:30:13;;;;;;;7.28;3.05;;;;;;;27.33;45.66;99568.94;4955593;29;20461;-76
2023/06/28 00:32:38;;;;;;;5.78;3.03;;;;;;;27.31;45.25;99563.69;4955487;29;20035;-75
2023/06/28 00:35:05;;;;;;;5.70;2.80;;;;;;;27.31;45.31;99569.06;4955576;29;20034;-75
2023/06/28 00:37:31;;;;;;;5.72;3.03;;;;;;;27.31;45.37;99569.06;4955481;29;20034;-77
2023/06/28 00:39:57;;;;;;;6.20;2.47;;;;;;;27.31;45.42;99569.06;4955452;29;20046;-74
2023/06/28 00:42:22;;;;;;;5.82;2.72;;;;;;;27.31;45.54;99563.69;4955016;29;20028;-77
2023/06/28 00:44:47;;;;;;;6.28;2.80;;;;;;;27.31;45.52;99569.06;4955428;29;20031;-74
2023/06/28 00:47:14;;;;;;;5.28;2.78;;;;;;;27.31;45.58;99566.38;4955338;29;20106;-74
2023/06/28 00:49:41;;;;;;;4.38;2.50;;;;;;;27.29;45.84;99560.31;4955214;29;20547;-74
2023/06/28 00:52:08;;;;;;;6.40;2.42;;;;;;;27.30;45.67;99562.00;4955107;28;20028;-74
2023/06/28 00:54:33;;;;;;;5.47;2.92;;;;;;;27.29;45.38;99560.31;4955194;29;20024;-74
2023/06/28 00:57:00;;;;;;;5.93;2.67;;;;;;;27.29;45.37;99557.66;4954719;28;20085;-75
2023/06/28 00:59:26;;;;;;;5.32;2.83;;;;;;;27.28;45.53;99558.63;4954849;29;20391;-75
2023/06/28 01:01:53;;;;;;;6.28;2.50;;;;;;;27.28;45.58;99553.28;4938037;29;20031;-75
2023/06/28 01:04:18;;;;;;;5.35;2.40;;;;;;;27.28;45.48;99558.63;4954102;28;20481;-75
2023/06/28 01:06:51;;;;;;;6.68;3.03;;;;;;;27.27;45.43;99556.94;4954737;29;20065;-75
2023/06/28 01:09:18;;;;;;;4.07;2.63;;;;;;;27.25;45.81;99556.19;4955004;29;20023;-75
2023/06/28 01:11:45;;;;;;;5.38;2.78;;;;;;;27.25;45.98;99552.69;4955102;29;20034;-74
2023/06/28 01:14:11;;;;;;;4.80;2.50;;;;;;;27.24;45.82;99546.47;4955106;29;20023;-75
2023/06/28 01:16:37;;;;;;;4.75;2.53;;;;;;;27.23;45.96;99557.31;4954765;29;20372;-75
2023/06/28 01:19:03;;;;;;;4.57;2.60;;;;;;;27.24;45.87;99553.66;4954594;29;20023;-77
2023/06/28 01:21:33;;;;;;;6.00;2.78;;;;;;;27.22;45.97;99553.81;4954844;29;20035;-75
2023/06/28 01:24:02;;;;;;;4.95;2.75;;;;;;;27.19;45.71;99546.03;4954239;29;20491;-75
2023/06/28 01:26:28;;;;;;;5.63;2.70;;;;;;;27.19;45.98;99548.69;4954728;29;20031;-76
2023/06/28 01:28:54;;;;;;;4.13;2.60;;;;;;;27.20;46.10;99550.38;4954417;29;20023;-75
2023/06/28 01:31:20;;;;;;;5.03;2.60;;;;;;;27.18;46.33;99547.00;4954532;29;20029;-74
2023/06/28 01:33:48;;;;;;;4.72;2.40;;;;;;;27.17;46.47;99545.31;4937353;29;20387;-77
2023/06/28 01:36:13;;;;;;;6.13;2.53;;;;;;;27.16;46.08;99547.13;4954449;29;20023;-75
2023/06/28 01:38:40;;;;;;;5.72;2.80;;;;;;;27.15;45.96;99547.25;4954177;28;20057;-73
2023/06/28 01:41:07;;;;;;;8.88;2.88;;;;;;;27.14;46.14;99556.28;4953268;29;20118;-75
2023/06/28 01:43:33;;;;;;;5.22;2.40;;;;;;;27.15;46.31;99547.25;4954227;28;20023;-75
2023/06/28 01:45:58;;;;;;;4.88;2.80;;;;;;;27.15;46.43;99552.63;4954452;28;20042;-75
2023/06/28 01:48:25;;;;;;;4.97;2.65;;;;;;;27.12;46.06;99545.69;4954282;28;20034;-74
2023/06/28 01:50:51;;;;;;;4.30;2.30;;;;;;;27.12;46.37;99548.38;4954253;28;20038;-76
2023/06/28 01:53:18;;;;;;;5.40;2.80;;;;;;;27.11;46.66;99545.84;4953460;28;20051;-76
2023/06/28 01:55:44;;;;;;;4.70;2.40;;;;;;;27.08;46.07;99542.44;4953712;28;20027;-78
2023/06/28 01:58:09;;;;;;;5.55;2.78;;;;;;;27.07;46.63;99555.97;4954119;29;20086;-75
2023/06/28 02:00:35;;;;;;;4.32;2.50;;;;;;;27.08;45.91;99547.78;4936786;29;20039;-75
2023/06/28 02:03:00;;;;;;;4.82;2.28;;;;;;;27.08;46.01;99542.44;4953868;29;20027;-75
2023/06/28 02:05:26;;;;;;;4.25;2.42;;;;;;;27.06;45.93;99549.75;4936947;29;20027;-76
2023/06/28 02:07:51;;;;;;;4.85;2.53;;;;;;;27.05;46.72;99542.72;4936453;29;20023;-77
2023/06/28 02:10:20;;;;;;;4.63;2.45;;;;;;;27.06;46.47;99549.75;4954208;29;20114;-76
2023/06/28 02:12:45;;;;;;;3.65;2.25;;;;;;;27.06;46.03;99539.03;4953902;29;20110;-76
2023/06/28 02:15:12;;;;;;;4.50;2.83;;;;;;;27.05;46.15;99539.16;4937233;29;20139;-74
2023/06/28 02:17:38;;;;;;;4.97;2.22;;;;;;;27.05;45.98;99545.38;4957869;29;20042;-76
2023/06/28 02:20:04;;;;;;;4.03;2.50;;;;;;;27.03;46.47;99550.00;4957882;29;20118;-73
2023/06/28 02:22:29;;;;;;;5.82;2.90;;;;;;;27.03;46.47;99555.34;4957773;29;20031;-75
2023/06/28 02:24:55;;;;;;;4.20;2.33;;;;;;;27.03;46.41;99552.69;4958012;29;20492;-74
2023/06/28 02:27:20;;;;;;;6.15;2.80;;;;;;;27.03;46.28;99547.31;4957898;29;20368;-76
2023/06/28 02:29:46;;;;;;;5.15;2.17;;;;;;;26.97;46.35;99544.34;4957815;29;20030;-75
2023/06/28 02:32:12;;;;;;;5.45;2.70;;;;;;;26.99;46.51;99545.91;4957874;29;20403;-76
2023/06/28 02:34:37;;;;;;;5.05;2.50;;;;;;;26.96;46.35;99553.38;4957847;29;20035;-74
2023/06/28 02:37:03;;;;;;;5.50;2.78;;;;;;;26.96;46.47;99546.16;4957174;29;20496;-74
2023/06/28 02:39:28;;;;;;;5.18;2.42;;;;;;;26.95;46.58;99541.78;4957503;28;20031;-75
2023/06/28 02:41:54;;;;;;;3.90;2.25;;;;;;;26.93;46.46;99549.13;4957515;28;20085;-75
2023/06/28 02:44:19;;;;;;;5.68;2.78;;;;;;;26.94;46.26;99545.44;4957463;28;20059;-75
2023/06/28 02:46:45;;;;;;;4.32;2.30;;;;;;;26.90;46.96;99535.94;4957470;28;20082;-75
2023/06/28 02:49:10;;;;;;;6.18;2.95;;;;;;;26.91;46.93;99534.97;4957648;28;20062;-75
2023/06/28 02:51:35;;;;;;;5.28;2.63;;;;;;;26.89;47.00;99531.56;4957177;28;20019;-73
2023/06/28 02:54:01;;;;;;;5.88;2.47;;;;;;;26.87;46.64;99528.19;4955957;28;20053;-75
2023/06/28 02:56:28;;;;;;;4.22;2.72;;;;;;;26.85;47.05;99525.63;4957331;28;20114;-74
2023/06/28 02:58:53;;;;;;;6.25;2.90;;;;;;;26.87;46.79;99522.84;4957160;29;20032;-75
2023/06/28 03:01:20;;;;;;;5.80;2.55;;;;;;;26.85;47.00;99531.00;4957413;29;20030;-75
2023/06/28 03:03:48;;;;;;;5.60;2.92;;;;;;;26.84;46.95;99529.31;4957230;29;20027;-74
2023/06/28 03:06:18;;;;;;;5.70;2.58;;;;;;;26.83;46.85;99522.25;4956857;29;20023;-74
2023/06/28 03:08:43;;;;;;;5.57;2.55;;;;;;;26.85;47.07;99516.75;4957168;29;20078;-75
2023/06/28 03:11:09;;;;;;;3.80;2.33;;;;;;;26.83;46.53;99521.41;4957233;29;20114;-74
2023/06/28 03:13:34;;;;;;;5.40;2.85;;;;;;;26.81;47.00;99516.16;4956961;29;20050;-74
2023/06/28 03:16:00;;;;;;;5.18;2.30;;;;;;;26.85;46.99;99519.41;4956909;29;20502;-74
2023/06/28 03:18:26;;;;;;;4.93;2.80;;;;;;;26.81;47.08;99511.66;4956862;29;20035;-74
2023/06/28 03:20:51;;;;;;;4.65;2.40;;;;;;;26.84;46.84;99521.28;4956691;29;20027;-76
2023/06/28 03:23:17;;;;;;;5.35;2.50;;;;;;;26.86;46.70;99508.59;4956799;29;20027;-76
2023/06/28 03:25:42;;;;;;;6.00;2.90;;;;;;;26.85;46.83;99509.56;4956824;29;20130;-76
2023/06/28 03:28:08;;;;;;;5.95;2.95;;;;;;;26.85;46.99;99514.06;4955606;28;20031;-76
2023/06/28 03:30:33;;;;;;;6.28;2.85;;;;;;;26.86;46.98;99518.44;4956694;29;20027;-76
2023/06/28 03:32:59;;;;;;;5.05;2.83;;;;;;;26.87;47.12;99512.13;4956749;29;20086;-76
2023/06/28 03:35:24;;;;;;;5.53;2.42;;;;;;;26.84;47.13;99517.72;4939000;29;20031;-74
2023/06/28 03:37:54;;;;;;;5.88;2.60;;;;;;;26.87;47.08;99506.78;4956707;29;20098;-73
2023/06/28 03:40:20;;;;;;;5.95;2.88;;;;;;;26.81;46.89;99514.34;4956410;29;20047;-75
2023/06/28 03:42:45;;;;;;;5.43;2.75;;;;;;;26.83;46.97;99510.69;4956808;29;20066;-77
2023/06/28 03:45:11;;;;;;;5.20;2.90;;;;;;;26.81;47.21;99509.00;4956648;29;20051;-76
2023/06/28 03:47:36;;;;;;;5.40;2.60;;;;;;;26.77;47.34;99512.91;4956379;29;20035;-75
2023/06/28 03:50:02;;;;;;;5.43;2.50;;;;;;;26.79;46.98;99510.09;4956163;29;20023;-74
2023/06/28 03:52:28;;;;;;;7.47;2.90;;;;;;;26.83;47.21;99516.03;4956173;28;20118;-75
2023/06/28 03:54:54;;;;;;;5.55;2.88;;;;;;;26.81;46.88;99513.50;4956284;28;20027;-76
2023/06/28 03:57:21;;;;;;;5.68;2.90;;;;;;;26.78;47.05;99509.25;4956034;28;20062;-75
2023/06/28 03:59:47;;;;;;;4.55;2.55;;;;;;;26.79;47.10;99510.94;4956508;29;20035;-75
2023/06/28 04:02:13;;;;;;;4.88;2.78;;;;;;;26.78;47.18;99511.91;4956129;29;20038;-75
2023/06/28 04:04:39;;;;;;;5.72;2.75;;;;;;;26.77;47.06;99512.91;4955841;29;20114;-74
2023/06/28 04:07:05;;;;;;;6.00;2.53;;;;;;;26.76;46.95;99519.25;4956158;29;20031;-75
2023/06/28 04:09:31;;;;;;;4.38;2.35;;;;;;;26.76;47.46;99518.38;4955982;29;20030;-75
2023/06/28 04:11:56;;;;;;;5.80;2.88;;;;;;;26.74;47.38;99518.53;4956181;29;20082;-75
2023/06/28 04:14:23;;;;;;;5.53;3.15;;;;;;;26.72;47.14;99514.28;4956081;29;20034;-76
2023/06/28 04:16:49;;;;;;;6.60;2.90;;;;;;;26.69;47.53;99510.03;4955862;29;20027;-74
2023/06/28 04:19:14;;;;;;;4.88;2.58;;;;;;;26.71;47.40;99513.44;4938272;29;20035;-74
2023/06/28 04:21:40;;;;;;;4.35;2.60;;;;;;;26.70;47.17;99513.53;4938458;29;20023;-76
2023/06/28 04:24:05;;;;;;;5.03;2.65;;;;;;;26.70;47.26;99510.88;4955872;29;20487;-75
2023/06/28 04:26:31;;;;;;;7.90;2.67;;;;;;;26.71;47.22;99526.81;4955849;29;20407;-75
2023/06/28 04:28:57;;;;;;;4.50;2.65;;;;;;;26.68;47.58;99519.03;4938287;29;20483;-76
2023/06/28 04:31:23;;;;;;;5.95;2.88;;;;;;;26.71;47.20;99518.78;4955705;29;20020;-75
2023/06/28 04:33:49;;;;;;;4.68;2.47;;;;;;;26.71;47.28;99518.78;4955396;29;20546;-76
2023/06/28 04:36:21;;;;;;;5.40;2.55;;;;;;;26.68;47.57;99513.66;4955347;29;20031;-75
2023/06/28 04:38:52;;;;;;;6.30;2.88;;;;;;;26.69;47.26;99515.41;4955275;28;20039;-75
2023/06/28 04:41:26;;;;;;;4.72;2.70;;;;;;;26.69;47.71;99507.38;4955597;28;20027;-75
2023/06/28 04:43:56;;;;;;;5.20;3.25;;;;;;;26.71;47.24;99510.75;4955560;28;20082;-74
2023/06/28 04:46:22;;;;;;;4.40;2.78;;;;;;;26.71;47.38;99518.78;4954255;29;20023;-74
2023/06/28 04:48:48;;;;;;;5.18;2.60;;;;;;;26.70;47.35;99511.72;4955117;28;20034;-75
2023/06/28 04:51:14;;;;;;;7.15;3.03;;;;;;;26.70;47.40;99508.19;4955389;28;20110;-75
2023/06/28 04:53:39;;;;;;;5.70;2.90;;;;;;;26.68;47.36;99513.66;4953879;28;20135;-75
2023/06/28 04:56:05;;;;;;;5.82;2.70;;;;;;;26.68;47.64;99516.34;4955127;28;20026;-75
2023/06/28 04:58:33;;;;;;;5.40;3.13;;;;;;;26.67;47.39;99514.66;4955318;29;20030;-75
2023/06/28 05:00:58;;;;;;;5.95;3.00;;;;;;;26.65;47.72;99511.28;4954955;29;20038;-75
2023/06/28 05:03:27;;;;;;;5.45;3.15;;;;;;;26.64;47.41;99517.59;4954886;29;20024;-74
2023/06/28 05:05:55;;;;;;;6.53;3.30;;;;;;;26.68;47.38;99508.31;4954942;29;20034;-73
2023/06/28 05:08:21;;;;;;;5.85;2.92;;;;;;;26.64;47.59;99514.94;4954886;29;20126;-75
2023/06/28 05:10:47;;;;;;;7.10;2.70;;;;;;;26.64;47.54;99506.91;4954693;29;20038;-76
2023/06/28 05:13:12;;;;;;;6.13;3.08;;;;;;;26.63;47.76;99511.38;4954710;29;20023;-76
2023/06/28 05:15:38;;;;;;;5.90;3.20;;;;;;;26.66;47.64;99507.59;4954805;29;20035;-75
2023/06/28 05:18:04;;;;;;;8.13;3.03;;;;;;;26.63;47.76;99510.56;4954241;29;20556;-74
2023/06/28 05:20:31;;;;;;;6.00;2.80;;;;;;;26.64;47.86;99509.56;4954555;29;20114;-75
2023/06/28 05:23:13;;;;;;;5.40;2.92;;;;;;;26.62;47.77;99515.06;4954613;29;20030;-75
2023/06/28 05:25:40;;;;;;;5.47;3.25;;;;;;;26.62;47.86;99509.69;4954675;29;20031;-75
2023/06/28 05:28:06;;;;;;;5.85;2.83;;;;;;;26.62;47.68;99508.84;4954402;29;20027;-76
2023/06/28 05:30:32;;;;;;;7.45;3.03;;;;;;;26.62;47.62;99515.06;4954340;29;20058;-74
2023/06/28 05:32:58;;;;;;;6.78;3.20;;;;;;;26.60;47.96;99513.47;4954570;29;20070;-75
2023/06/28 05:35:24;;;;;;;5.70;3.17;;;;;;;26.61;47.52;99517.84;4954351;29;20543;-76
2023/06/28 05:37:49;;;;;;;7.53;3.05;;;;;;;26.62;47.57;99514.19;4954572;29;20039;-75
2023/06/28 05:40:15;;;;;;;5.80;3.17;;;;;;;26.62;47.49;99519.53;4954415;28;20038;-75
2023/06/28 05:42:40;;;;;;;4.65;3.15;;;;;;;26.60;47.62;99521.50;4954477;28;20031;-73
2023/06/28 05:45:06;;;;;;;6.53;3.22;;;;;;;26.61;47.56;99517.84;4954177;28;20110;-74
2023/06/28 05:47:31;;;;;;;7.10;3.45;;;;;;;26.58;47.95;99518.13;4954168;29;20027;-74
2023/06/28 05:49:56;;;;;;;6.47;3.10;;;;;;;26.60;47.95;99522.38;4954021;28;20070;-76
2023/06/28 05:52:22;;;;;;;6.80;3.05;;;;;;;26.60;47.82;99521.50;4954367;28;20050;-74
2023/06/28 05:54:47;;;;;;;5.50;3.05;;;;;;;26.60;48.00;99521.50;4954255;28;20023;-75
2023/06/28 05:57:13;;;;;;;5.30;3.10;;;;;;;26.58;48.00;99524.31;4941807;28;20035;-75
2023/06/28 05:59:38;;;;;;;5.63;2.92;;;;;;;26.59;47.74;99519.81;4953700;29;20114;-75
2023/06/28 06:02:04;;;;;;;5.97;3.03;;;;;;;26.59;47.58;99526.03;4954183;29;20391;-75
2023/06/28 06:04:30;;;;;;;6.05;2.70;;;;;;;26.60;47.86;99522.38;4954303;29;20027;-75
2023/06/28 06:06:55;;;;;;;4.90;2.80;;;;;;;26.61;47.79;99524.06;4953966;29;20023;-73
2023/06/28 06:09:21;;;;;;;6.30;3.13;;;;;;;26.56;47.76;99525.41;4954221;29;20028;-74
2023/06/28 06:11:46;;;;;;;5.43;3.20;;;;;;;26.57;48.13;99521.78;4954126;29;20023;-75
2023/06/28 06:14:12;;;;;;;7.35;3.40;;;;;;;26.57;47.88;99521.78;4953759;29;20102;-74
2023/06/28 06:16:37;;;;;;;5.15;2.47;;;;;;;26.56;48.01;99522.72;4954055;29;20034;-74
2023/06/28 06:19:02;;;;;;;6.28;2.97;;;;;;;26.54;48.00;99515.69;4953739;29;20031;-75
2023/06/28 06:21:28;;;;;;;4.72;2.38;;;;;;;26.56;47.85;99522.72;4954163;29;20030;-75
2023/06/28 06:23:53;;;;;;;5.55;2.97;;;;;;;26.56;48.28;99522.72;4954063;29;20383;-75
2023/06/28 06:26:19;;;;;;;6.18;3.03;;;;;;;26.58;47.82;99526.16;4953827;29;20035;-75
2023/06/28 06:28:44;;;;;;;4.95;2.78;;;;;;;26.60;48.07;99532.22;4953611;29;20031;-74
2023/06/28 06:31:13;;;;;;;6.20;3.13;;;;;;;26.61;48.13;99523.19;4953835;29;20015;-75
2023/06/28 06:33:42;;;;;;;5.25;3.10;;;;;;;26.60;47.84;99529.53;4953836;29;20448;-75
2023/06/28 06:36:07;;;;;;;5.78;2.97;;;;;;;26.60;47.77;99534.88;4953944;29;20031;-75
2023/06/28 06:38:33;;;;;;;5.80;3.00;;;;;;;26.59;47.88;99531.38;4953919;29;20026;-74
2023/06/28 06:40:58;;;;;;;5.88;3.47;;;;;;;26.60;47.94;99526.84;4953798;29;20483;-74
2023/06/28 06:43:23;;;;;;;5.53;3.00;;;;;;;26.61;48.19;99531.22;4953428;29;20058;-76
2023/06/28 06:45:49;;;;;;;6.43;3.35;;;;;;;26.62;47.92;99527.56;4936480;29;20123;-75
2023/06/28 06:48:14;;;;;;;4.05;2.55;;;;;;;26.62;47.99;99536.47;4953472;29;20031;-75
2023/06/28 06:50:40;;;;;;;5.63;3.22;;;;;;;26.62;47.89;99531.09;4953878;28;20086;-75
2023/06/28 06:53:05;;;;;;;7.00;2.90;;;;;;;26.64;48.19;99533.66;4953642;28;20098;-74
2023/06/28 06:55:32;;;;;;;5.30;2.85;;;;;;;26.63;47.78;99540.00;4953471;28;20487;-75
2023/06/28 06:57:58;;;;;;;4.78;3.17;;;;;;;26.62;48.16;99530.25;4953279;29;20114;-74
2023/06/28 07:00:23;;;;;;;5.72;2.97;;;;;;;26.60;48.06;99526.84;4953621;29;20121;-74
2023/06/28 07:02:49;;;;;;;5.97;3.20;;;;;;;26.64;48.16;99531.81;4956755;28;20031;-75
2023/06/28 07:05:15;;;;;;;5.28;2.75;;;;;;;26.67;48.07;99528.91;4940163;29;20392;-74
2023/06/28 07:07:42;;;;;;;5.75;3.20;;;;;;;26.66;47.92;99531.69;4957056;29;20050;-75
2023/06/28 07:10:08;;;;;;;5.72;3.13;;;;;;;26.69;48.12;99536.81;4957172;29;20031;-75
2023/06/28 07:12:34;;;;;;;3.65;2.70;;;;;;;26.70;48.27;99534.97;4956823;29;20023;-75
2023/06/28 07:14:59;;;;;;;5.15;3.00;;;;;;;26.71;48.25;99540.19;4957093;29;20039;-74
2023/06/28 07:17:25;;;;;;;5.43;2.90;;;;;;;26.73;48.14;99529.34;4956980;29;20086;-75
2023/06/28 07:19:50;;;;;;;5.97;2.97;;;;;;;26.70;48.32;99525.13;4957067;29;20031;-75
2023/06/28 07:22:15;;;;;;;6.07;3.63;;;;;;;26.72;48.26;99539.19;4956801;29;20476;-77
2023/06/28 07:24:41;;;;;;;4.45;2.80;;;;;;;26.71;48.14;99537.50;4956748;29;20054;-75
2023/06/28 07:27:06;;;;;;;5.18;2.90;;;;;;;26.72;48.20;99538.38;4956459;29;20089;-74
2023/06/28 07:29:33;;;;;;;5.43;3.03;;;;;;;26.70;48.12;99538.50;4956620;29;20039;-74
2023/06/28 07:31:58;;;;;;;4.80;2.90;;;;;;;26.72;48.14;99536.53;4956759;29;20027;-75
2023/06/28 07:34:24;;;;;;;5.65;2.90;;;;;;;26.73;48.14;99537.38;4939474;29;20038;-74
2023/06/28 07:36:49;;;;;;;4.60;2.95;;;;;;;26.73;48.16;99542.75;4956724;29;20428;-74
2023/06/28 07:39:15;;;;;;;5.07;2.95;;;;;;;26.72;48.02;99543.72;4956663;29;20054;-77
2023/06/28 07:41:40;;;;;;;5.25;2.92;;;;;;;26.74;48.23;99539.94;4956202;29;20035;-74
2023/06/28 07:44:05;;;;;;;4.93;3.30;;;;;;;26.76;47.99;99542.47;4956400;29;20031;-75
2023/06/28 07:46:31;;;;;;;5.35;3.13;;;;;;;26.76;47.84;99542.47;4950496;29;20027;-75
2023/06/28 07:48:59;;;;;;;4.75;3.10;;;;;;;26.75;47.86;99538.09;4956255;29;20155;-75
2023/06/28 07:51:25;;;;;;;6.25;3.47;;;;;;;26.75;48.24;99541.63;4955830;29;20027;-75
2023/06/28 07:53:50;;;;;;;4.20;3.00;;;;;;;26.77;47.91;99541.47;4955934;28;20407;-74
2023/06/28 07:56:16;;;;;;;5.15;3.30;;;;;;;26.78;47.95;99536.00;4955801;28;20443;-74
2023/06/28 07:58:41;;;;;;;5.30;3.10;;;;;;;26.79;48.27;99537.69;4939764;28;20114;-75
2023/06/28 08:01:07;;;;;;;5.68;3.25;;;;;;;26.79;48.31;99540.38;4964734;28;20023;-75
2023/06/28 08:03:32;;;;;;;5.53;3.50;;;;;;;26.80;47.90;99544.78;4956699;28;20035;-74
2023/06/28 08:05:58;;;;;;;6.00;3.15;;;;;;;26.80;48.44;99538.56;4956039;28;20031;-75
2023/06/28 08:08:23;;;;;;;7.32;3.40;;;;;;;26.81;48.34;99535.75;4969257;28;20037;-74
2023/06/28 08:10:49;;;;;;;5.93;3.33;;;;;;;26.82;48.11;99541.94;4974956;28;20403;-76
2023/06/28 08:13:14;;;;;;;6.32;3.13;;;;;;;26.84;48.18;99544.50;4969326;28;20023;-76
2023/06/28 08:15:40;;;;;;;5.82;3.47;;;;;;;26.84;47.89;99545.38;4958982;28;20042;-76
2023/06/28 08:18:09;;;;;;;5.60;3.33;;;;;;;26.85;48.29;99540.84;4974848;28;20082;-75
2023/06/28 08:20:34;;;;;;;5.72;3.13;;;;;;;26.86;47.79;99545.22;4962590;28;20062;-76
2023/06/28 08:23:00;;;;;;;5.63;3.20;;;;;;;26.87;48.04;99538.91;4955382;29;20102;-75
2023/06/28 08:25:25;;;;;;;5.05;3.17;;;;;;;26.86;48.16;99542.53;4955408;29;20156;-75
2023/06/28 08:27:51;;;;;;;5.78;3.20;;;;;;;26.88;48.22;99540.59;4955636;29;20032;-74
2023/06/28 08:30:16;;;;;;;6.80;3.10;;;;;;;26.88;47.87;99537.91;4955492;29;20103;-75
2023/06/28 08:32:42;;;;;;;5.80;3.50;;;;;;;26.87;47.80;99538.91;4958468;28;20106;-75
2023/06/28 08:35:08;;;;;;;6.57;2.95;;;;;;;26.85;47.82;99532.81;4974839;28;20037;-75
2023/06/28 08:37:34;;;;;;;6.65;3.45;;;;;;;26.86;48.18;99521.97;4963124;28;20396;-75
2023/06/28 08:40:00;;;;;;;6.25;3.38;;;;;;;26.87;48.23;99525.50;4954954;29;20042;-75
2023/06/28 08:42:28;;;;;;;7.15;3.42;;;;;;;26.87;48.08;99518.31;4955546;29;20050;-74
2023/06/28 08:44:56;;;;;;;5.53;3.33;;;;;;;26.88;48.17;99519.19;4955349;29;20031;-74
2023/06/28 08:47:21;;;;;;;6.82;3.38;;;;;;;26.90;47.78;99506.50;4955404;29;20427;-75
2023/06/28 08:49:47;;;;;;;5.90;3.22;;;;;;;26.90;47.89;99511.84;4955442;29;20035;-75
2023/06/28 08:52:15;;;;;;;5.40;3.15;;;;;;;26.92;48.12;99515.28;4949797;29;20071;-76
2023/06/28 08:54:42;;;;;;;7.72;3.60;;;;;;;26.91;47.98;99514.44;4953306;28;20050;-75
2023/06/28 08:57:08;;;;;;;5.35;3.50;;;;;;;26.92;48.07;99516.13;4945023;28;20043;-75
2023/06/28 08:59:34;;;;;;;5.88;3.25;;;;;;;26.94;48.07;99519.50;4948410;28;20520;-77
2023/06/28 09:02:01;;;;;;;5.93;3.33;;;;;;;26.97;47.83;99517.56;4952224;28;20031;-74
2023/06/28 09:04:27;;;;;;;10.07;3.53;;;;;;;26.97;47.91;99513.03;4947347;28;20028;-76
2023/06/28 09:06:53;;;;;;;6.10;3.72;;;;;;;26.97;47.92;99513.03;4956581;28;20106;-75
2023/06/28 09:09:19;;;;;;;7.22;3.28;;;;;;;26.97;47.92;99518.41;4962981;28;20193;-74
2023/06/28 09:11:45;;;;;;;7.85;3.15;;;;;;;26.98;47.97;99514.78;4943863;29;20031;-75
2023/06/28 09:14:12;;;;;;;7.18;3.85;;;;;;;26.99;48.06;99520.94;4951168;28;20038;-75
2023/06/28 09:16:37;;;;;;;12.98;4.13;;;;;;;27.00;48.05;99518.16;4949752;29;20062;-75
2023/06/28 09:19:02;;;;;;;7.57;3.20;;;;;;;27.00;47.71;99517.28;4948674;28;20067;-74
2023/06/28 09:21:29;;;;;;;7.45;3.50;;;;;;;27.00;47.83;99520.81;4952972;28;20027;-76
2023/06/28 09:23:55;;;;;;;7.18;3.60;;;;;;;27.02;48.01;99523.38;4954406;28;20019;-76
2023/06/28 09:26:29;;;;;;;5.88;3.30;;;;;;;27.02;47.95;99510.81;4953311;28;20023;-73
2023/06/28 09:28:58;;;;;;;7.35;3.47;;;;;;;27.04;48.05;99519.59;4956013;28;20023;-75
2023/06/28 09:31:24;;;;;;;6.20;3.45;;;;;;;27.04;48.00;99513.38;4954632;28;20038;-76
2023/06/28 09:33:53;;;;;;;7.60;3.80;;;;;;;27.04;47.99;99508.88;4950477;29;20479;-76
2023/06/28 09:36:19;;;;;;;5.38;3.03;;;;;;;27.05;47.99;99507.91;4948876;28;20047;-75
2023/06/28 09:38:44;;;;;;;4.22;2.78;;;;;;;27.07;47.88;99508.59;4949150;29;20396;-76
2023/06/28 09:41:10;;;;;;;6.00;3.17;;;;;;;27.06;47.61;99514.94;4949565;28;20116;-76
2023/06/28 09:43:37;;;;;;;6.68;2.95;;;;;;;27.07;47.69;99513.97;4951524;29;20457;-74
2023/06/28 09:46:16;;;;;;;5.10;2.83;;;;;;;27.06;47.65;99512.25;4952522;29;20019;-75
2023/06/28 09:48:47;;;;;;;5.35;3.42;;;;;;;27.08;47.66;99510.28;4952355;29;20027;-75
2023/06/28 09:51:15;;;;;;;7.88;3.13;;;;;;;27.11;47.99;99508.34;4967977;28;20030;-75
2023/06/28 09:53:56;;;;;;;5.47;3.30;;;;;;;27.11;48.16;99511.03;4965042;28;20051;-76
2023/06/28 09:56:35;;;;;;;5.88;2.97;;;;;;;27.12;48.14;99504.69;4954189;28;20031;-75
2023/06/28 09:59:08;;;;;;;8.15;3.35;;;;;;;27.13;48.04;99506.38;4937051;29;20122;-75
2023/06/28 10:01:42;;;;;;;6.28;3.13;;;;;;;27.12;47.62;99504.69;4954325;29;20518;-75
2023/06/28 10:04:11;;;;;;;5.32;2.88;;;;;;;27.13;47.80;99506.38;4954243;29;20029;-75
2023/06/28 10:06:37;;;;;;;5.35;3.22;;;;;;;27.14;47.94;99502.72;4954098;28;20035;-74
2023/06/28 10:09:03;;;;;;;8.32;3.38;;;;;;;27.15;48.06;99501.72;4956546;28;20027;-75
2023/06/28 10:11:37;;;;;;;8.25;3.10;;;;;;;27.16;48.12;99496.25;4973527;28;20042;-76
2023/06/28 10:14:06;;;;;;;7.97;3.40;;;;;;;27.16;48.19;99495.41;4952501;28;20036;-75
2023/06/28 10:16:33;;;;;;;8.02;3.38;;;;;;;27.15;48.06;99491.88;4953743;28;20027;-74
2023/06/28 10:18:59;;;;;;;8.43;3.67;;;;;;;27.17;47.67;99497.09;4953926;28;20035;-75
2023/06/28 10:21:26;;;;;;;4.68;2.92;;;;;;;27.17;47.68;99494.44;4953534;28;20028;-74
2023/06/28 10:23:52;;;;;;;9.20;3.30;;;;;;;27.18;47.68;99488.06;4953675;28;20028;-74
2023/06/28 10:26:19;;;;;;;5.88;3.20;;;;;;;27.18;47.59;99494.31;4953695;29;20027;-75
2023/06/28 10:28:45;;;;;;;8.80;3.50;;;;;;;27.19;47.54;99487.09;4953603;29;20540;-73
2023/06/28 10:31:11;;;;;;;6.07;3.10;;;;;;;27.19;47.71;99497.81;4953795;29;20479;-74
2023/06/28 10:33:38;;;;;;;9.68;3.10;;;;;;;27.19;47.49;99495.13;4953789;29;20070;-75
2023/06/28 10:36:04;;;;;;;6.90;3.60;;;;;;;27.20;47.85;99496.81;4952817;28;20054;-74
2023/06/28 10:38:36;;;;;;;7.65;4.13;;;;;;;27.20;47.63;99486.09;4957520;29;20031;-74
2023/06/28 10:41:03;;;;;;;7.60;4.13;;;;;;;27.21;47.75;99494.00;4957174;29;20102;-74
2023/06/28 10:43:28;;;;;;;7.45;3.90;;;;;;;27.21;47.56;99491.34;4957101;29;20020;-75
2023/06/28 10:45:54;;;;;;;9.05;3.85;;;;;;;27.22;48.07;99489.53;4957310;28;20489;-75
2023/06/28 10:48:21;;;;;;;6.47;3.38;;;;;;;27.23;48.15;99485.00;4957348;28;20031;-75
2023/06/28 10:50:48;;;;;;;8.77;3.30;;;;;;;27.24;48.13;99476.81;4956368;28;20491;-75
2023/06/28 10:53:27;;;;;;;7.95;3.63;;;;;;;27.24;47.77;99482.19;4956380;28;20055;-76
2023/06/28 10:56:12;;;;;;;6.43;3.72;;;;;;;27.24;47.67;99481.31;4956162;28;20051;-76
2023/06/28 10:58:41;;;;;;;9.30;3.05;;;;;;;27.26;47.51;99482.88;4956908;29;20388;-76
2023/06/28 11:01:12;;;;;;;7.07;3.13;;;;;;;27.27;48.01;99475.72;4939762;29;20031;-75
2023/06/28 11:03:43;;;;;;;5.68;3.20;;;;;;;27.27;48.20;99476.56;4956609;29;20031;-77
2023/06/28 11:06:10;;;;;;;7.47;3.60;;;;;;;27.29;47.71;99485.31;4956829;29;20112;-77
2023/06/28 11:08:44;;;;;;;4.45;2.72;;;;;;;27.30;48.07;99470.94;4957019;29;20038;-75
2023/06/28 11:11:33;;;;;;;6.18;2.97;;;;;;;27.31;47.82;99477.97;4957117;29;20035;-74
2023/06/28 11:14:16;;;;;;;5.47;2.92;;;;;;;27.32;48.42;99479.66;4956314;29;20030;-75
2023/06/28 11:16:42;;;;;;;4.55;2.60;;;;;;;27.35;48.04;99481.22;4939537;29;20122;-75
2023/06/28 11:19:13;;;;;;;4.93;2.67;;;;;;;27.36;48.16;99480.28;4950372;28;20462;-75
2023/06/28 11:21:40;;;;;;;5.78;2.85;;;;;;;27.36;47.71;99490.13;4953202;28;20446;-75
2023/06/28 11:24:06;;;;;;;6.63;2.83;;;;;;;27.36;47.53;99474.06;4948953;28;20153;-75
2023/06/28 11:26:36;;;;;;;6.93;3.13;;;;;;;27.34;47.43;99477.72;4958585;28;20023;-74
2023/06/28 11:29:16;;;;;;;5.95;2.83;;;;;;;27.37;47.89;99471.25;4948162;28;20408;-74
2023/06/28 11:31:46;;;;;;;5.72;3.13;;;;;;;27.39;47.72;99471.09;4943311;28;20515;-75